Time;durP1;ratioP1;P1;durP2;ratioP2;P2;SDS_P1;SDS_P2;PMS_P1;PMS_P2;Temp;Humidity;BMP_temperature;BMP_pressure;BME280_temperature;BME280_humidity;BME280_pressure;Samples;Min_cycle;Max_cycle;Signal;HPM_P1;HPM_P2
2023/02/10 00:00:29;;;;;;;11.80;8.07;;;1.30;99.90;;;;;;5108122;28;20630;-70
2023/02/10 00:02:57;;;;;;;9.23;7.83;;;1.30;99.90;;;;;;5091975;28;20254;-70
2023/02/10 00:05:24;;;;;;;10.33;7.50;;;1.30;99.90;;;;;;5092482;28;20216;-71
2023/02/10 00:07:51;;;;;;;10.27;7.33;;;1.40;99.90;;;;;;5104286;28;20336;-71
2023/02/10 00:10:18;;;;;;;9.60;7.50;;;1.30;99.90;;;;;;5067615;28;20242;-71
2023/02/10 00:12:44;;;;;;;9.70;7.93;;;1.30;99.90;;;;;;5067522;28;20290;-71
2023/02/10 00:15:11;;;;;;;12.37;7.60;;;1.30;99.90;;;;;;5091654;28;20290;-71
2023/02/10 00:17:38;;;;;;;9.97;7.20;;;1.30;99.90;;;;;;5087408;28;20627;-70
2023/02/10 00:20:08;;;;;;;9.57;7.30;;;1.30;99.90;;;;;;5087727;28;20285;-69
2023/02/10 00:22:35;;;;;;;9.40;7.60;;;1.20;99.90;;;;;;5086777;28;20902;-69
2023/02/10 00:25:02;;;;;;;9.03;7.53;;;1.20;99.90;;;;;;5088549;28;20206;-69
2023/02/10 00:27:29;;;;;;;11.03;7.50;;;1.20;99.90;;;;;;5107763;28;21112;-69
2023/02/10 00:29:55;;;;;;;10.17;7.80;;;1.20;99.90;;;;;;5109638;28;20613;-69
2023/02/10 00:32:22;;;;;;;10.53;7.47;;;1.20;99.90;;;;;;5098593;28;20252;-69
2023/02/10 00:34:49;;;;;;;8.93;6.93;;;1.20;99.90;;;;;;5091545;28;20290;-72
2023/02/10 00:37:17;;;;;;;8.67;7.37;;;1.20;99.90;;;;;;5091794;28;20292;-71
2023/02/10 00:39:45;;;;;;;9.70;7.60;;;1.30;99.90;;;;;;5091367;28;20632;-71
2023/02/10 00:42:12;;;;;;;10.97;7.50;;;1.30;99.90;;;;;;5092904;28;20199;-71
2023/02/10 00:44:39;;;;;;;10.77;7.70;;;1.30;99.90;;;;;;5091712;28;20219;-72
2023/02/10 00:47:06;;;;;;;11.03;8.37;;;1.30;99.90;;;;;;5091588;28;20318;-71
2023/02/10 00:49:33;;;;;;;10.37;7.43;;;1.30;99.90;;;;;;5091282;28;20294;-71
2023/02/10 00:51:59;;;;;;;9.30;7.43;;;1.30;99.90;;;;;;5091490;28;20242;-71
2023/02/10 00:54:28;;;;;;;10.67;8.17;;;1.30;99.90;;;;;;5091314;28;20228;-71
2023/02/10 00:56:55;;;;;;;10.53;7.90;;;1.30;99.90;;;;;;5092338;28;20295;-72
2023/02/10 00:59:21;;;;;;;10.07;7.73;;;1.40;99.90;;;;;;5110190;28;20289;-72
2023/02/10 01:01:48;;;;;;;12.80;8.00;;;1.40;99.90;;;;;;5111422;28;20221;-72
2023/02/10 01:04:15;;;;;;;11.23;7.63;;;1.40;99.90;;;;;;5105527;28;20286;-71
2023/02/10 01:06:42;;;;;;;9.90;7.90;;;1.40;99.90;;;;;;5070625;28;21077;-71
2023/02/10 01:09:09;;;;;;;11.90;8.10;;;1.40;99.90;;;;;;5105454;28;20207;-72
2023/02/10 01:11:38;;;;;;;11.63;8.50;;;1.30;99.90;;;;;;5091081;28;20285;-72
2023/02/10 01:14:05;;;;;;;9.90;8.27;;;1.30;99.90;;;;;;5071657;28;20215;-72
2023/02/10 01:16:32;;;;;;;11.60;8.33;;;1.30;99.90;;;;;;5090970;28;20297;-70
2023/02/10 01:19:00;;;;;;;10.33;8.83;;;1.30;99.90;;;;;;5090282;28;20202;-69
2023/02/10 01:21:27;;;;;;;11.63;8.60;;;1.20;99.90;;;;;;5110154;28;20233;-69
2023/02/10 01:23:54;;;;;;;10.40;8.30;;;1.20;99.90;;;;;;5110370;28;20293;-69
2023/02/10 01:26:21;;;;;;;11.47;8.00;;;1.30;99.90;;;;;;5110767;28;20301;-69
2023/02/10 01:28:49;;;;;;;10.83;8.13;;;1.10;99.90;;;;;;5110463;28;20297;-69
2023/02/10 01:31:18;;;;;;;10.67;8.03;;;1.20;99.90;;;;;;5110286;28;20296;-69
2023/02/10 01:33:45;;;;;;;11.30;8.70;;;1.20;99.90;;;;;;5109889;28;20198;-69
2023/02/10 01:36:15;;;;;;;10.87;8.00;;;1.10;99.90;;;;;;5110475;28;20306;-69
2023/02/10 01:38:42;;;;;;;13.50;9.13;;;1.10;99.90;;;;;;5101837;28;20222;-68
2023/02/10 01:41:09;;;;;;;14.33;7.90;;;1.10;99.90;;;;;;5089375;28;20622;-69
2023/02/10 01:43:57;;;;;;;9.97;8.17;;;1.10;99.90;;;;;;5090136;28;20234;-68
2023/02/10 01:46:24;;;;;;;9.93;8.20;;;1.00;99.90;;;;;;5090013;28;20288;-69
2023/02/10 01:48:52;;;;;;;13.00;8.93;;;1.00;99.90;;;;;;5097236;28;20225;-68
2023/02/10 01:51:22;;;;;;;10.33;8.13;;;1.00;99.90;;;;;;5110264;28;20233;-69
2023/02/10 01:53:49;;;;;;;10.03;8.63;;;1.00;99.90;;;;;;5110059;28;20278;-69
2023/02/10 01:56:16;;;;;;;10.30;8.20;;;1.00;99.90;;;;;;5109973;28;20295;-70
2023/02/10 01:58:44;;;;;;;12.57;9.07;;;0.90;99.90;;;;;;5110096;28;20305;-70
2023/02/10 02:01:13;;;;;;;12.90;8.33;;;0.90;99.90;;;;;;5108027;28;20230;-70
2023/02/10 02:03:41;;;;;;;11.47;8.83;;;0.90;99.90;;;;;;5089871;28;20313;-70
2023/02/10 02:06:08;;;;;;;9.70;7.90;;;0.90;99.90;;;;;;5100657;28;20279;-70
2023/02/10 02:08:35;;;;;;;13.03;9.17;;;0.90;99.90;;;;;;5104323;28;20760;-69
2023/02/10 02:11:10;;;;;;;12.23;8.73;;;0.80;99.90;;;;;;5089632;28;20298;-69
2023/02/10 02:13:48;;;;;;;11.50;8.10;;;0.80;99.90;;;;;;5100051;28;20225;-69
2023/02/10 02:16:28;;;;;;;10.83;8.00;;;0.80;99.90;;;;;;5089922;28;20222;-70
2023/02/10 02:19:05;;;;;;;11.53;8.83;;;0.80;99.90;;;;;;5089509;28;20294;-70
2023/02/10 02:22:05;;;;;;;14.03;8.77;;;0.80;99.90;;;;;;5089367;28;20322;-70
2023/02/10 02:24:59;;;;;;;11.20;8.93;;;0.80;99.90;;;;;;5091558;28;20311;-70
2023/02/10 02:27:58;;;;;;;11.37;8.57;;;0.80;99.90;;;;;;5109863;27;20215;-71
2023/02/10 02:30:51;;;;;;;13.00;8.50;;;0.80;99.90;;;;;;5083802;28;20665;-71
2023/02/10 02:33:22;;;;;;;9.80;8.27;;;0.80;99.90;;;;;;5089216;28;21028;-70
2023/02/10 02:35:54;;;;;;;12.00;8.67;;;0.90;99.90;;;;;;5093007;28;20952;-70
2023/02/10 02:38:21;;;;;;;11.33;8.43;;;0.80;99.90;;;;;;5089140;28;20197;-70
2023/02/10 02:40:48;;;;;;;12.10;8.57;;;0.90;99.90;;;;;;5089063;28;20301;-70
2023/02/10 02:43:15;;;;;;;11.07;8.37;;;0.90;99.90;;;;;;5088767;28;20204;-68
2023/02/10 02:45:53;;;;;;;11.77;8.57;;;0.90;99.90;;;;;;5088683;28;20244;-69
2023/02/10 02:48:42;;;;;;;11.70;8.80;;;0.90;99.90;;;;;;5089520;28;20269;-69
2023/02/10 02:51:15;;;;;;;10.57;8.53;;;0.90;99.90;;;;;;5089285;28;20275;-69
2023/02/10 02:53:51;;;;;;;11.17;8.50;;;0.80;99.90;;;;;;5088451;28;20205;-69
2023/02/10 02:56:25;;;;;;;12.10;9.00;;;0.80;99.90;;;;;;5089073;28;20278;-70
2023/02/10 02:58:57;;;;;;;11.40;8.73;;;0.80;99.90;;;;;;5068063;28;21091;-70
2023/02/10 03:01:30;;;;;;;12.37;9.30;;;0.80;99.90;;;;;;5096047;28;20305;-70
2023/02/10 03:03:59;;;;;;;13.67;9.50;;;0.80;99.90;;;;;;5108490;28;20285;-70
2023/02/10 03:06:26;;;;;;;11.23;8.67;;;0.80;99.90;;;;;;5103584;28;20766;-70
2023/02/10 03:08:53;;;;;;;12.87;9.43;;;0.80;99.90;;;;;;5108429;28;20269;-70
2023/02/10 03:11:20;;;;;;;13.43;9.87;;;0.80;99.90;;;;;;5108909;28;20289;-71
2023/02/10 03:13:47;;;;;;;16.80;10.03;;;0.80;99.90;;;;;;5091132;28;20294;-71
2023/02/10 03:16:14;;;;;;;12.47;9.27;;;0.70;99.90;;;;;;5088350;28;20198;-70
2023/02/10 03:18:41;;;;;;;14.90;10.27;;;0.70;99.90;;;;;;5088180;28;20290;-72
2023/02/10 03:21:09;;;;;;;18.83;10.47;;;0.70;99.90;;;;;;5088042;28;20721;-69
2023/02/10 03:23:36;;;;;;;14.37;10.13;;;0.70;99.90;;;;;;5087852;28;20293;-69
2023/02/10 03:26:03;;;;;;;14.67;10.17;;;0.60;99.90;;;;;;5095399;28;20319;-70
2023/02/10 03:28:30;;;;;;;15.10;10.60;;;0.60;99.90;;;;;;5065519;28;20324;-70
2023/02/10 03:30:57;;;;;;;13.33;9.80;;;0.60;99.90;;;;;;5080348;28;20349;-70
2023/02/10 03:33:24;;;;;;;16.40;10.70;;;0.60;99.90;;;;;;5106374;28;20297;-70
2023/02/10 03:35:52;;;;;;;19.13;11.90;;;0.60;99.90;;;;;;5097442;28;20210;-70
2023/02/10 03:38:20;;;;;;;15.37;10.93;;;0.60;99.90;;;;;;5092414;28;20317;-70
2023/02/10 03:40:50;;;;;;;16.13;10.63;;;0.70;99.90;;;;;;5086057;28;20713;-69
2023/02/10 03:43:17;;;;;;;18.77;11.33;;;0.60;99.90;;;;;;5085924;28;20209;-70
2023/02/10 03:45:44;;;;;;;18.50;11.53;;;0.70;99.90;;;;;;5077770;28;20212;-70
2023/02/10 03:48:11;;;;;;;18.40;12.20;;;0.70;99.90;;;;;;5067361;28;20274;-70
2023/02/10 03:50:39;;;;;;;21.97;12.47;;;0.70;99.90;;;;;;5107385;28;20292;-70
2023/02/10 03:53:06;;;;;;;19.20;12.27;;;0.70;99.90;;;;;;5089980;27;20611;-70
2023/02/10 03:55:35;;;;;;;20.67;12.53;;;0.70;99.90;;;;;;5086978;28;20305;-69
2023/02/10 03:58:03;;;;;;;20.00;12.10;;;0.70;99.90;;;;;;5085771;28;20211;-69
2023/02/10 04:00:30;;;;;;;20.37;12.47;;;0.70;99.90;;;;;;5085914;28;20282;-69
2023/02/10 04:02:57;;;;;;;23.30;13.67;;;0.70;99.90;;;;;;5066157;28;20317;-70
2023/02/10 04:05:24;;;;;;;19.07;13.47;;;0.70;99.90;;;;;;5078533;28;20292;-69
2023/02/10 04:07:51;;;;;;;22.43;14.00;;;0.80;99.90;;;;;;5110337;28;20230;-69
2023/02/10 04:10:18;;;;;;;20.30;13.87;;;0.80;99.90;;;;;;5110934;28;20202;-69
2023/02/10 04:12:46;;;;;;;25.40;14.57;;;0.80;99.90;;;;;;5111977;28;20212;-69
2023/02/10 04:15:13;;;;;;;22.73;14.13;;;0.90;99.90;;;;;;5112081;28;20293;-69
2023/02/10 04:17:40;;;;;;;25.83;14.23;;;0.90;99.90;;;;;;5111654;28;20680;-69
2023/02/10 04:20:08;;;;;;;23.40;14.47;;;0.90;99.90;;;;;;5111904;28;20205;-69
2023/02/10 04:22:34;;;;;;;23.30;14.17;;;1.00;99.90;;;;;;5111277;28;20236;-70
2023/02/10 04:25:01;;;;;;;24.73;14.93;;;1.00;99.90;;;;;;5111687;28;20244;-69
2023/02/10 04:27:28;;;;;;;25.87;15.73;;;1.00;99.90;;;;;;5101267;28;20294;-69
2023/02/10 04:29:56;;;;;;;25.23;15.43;;;1.00;99.90;;;;;;5091158;28;20291;-70
2023/02/10 04:32:23;;;;;;;26.87;15.87;;;1.00;99.90;;;;;;5070899;28;20211;-69
2023/02/10 04:34:50;;;;;;;26.90;15.63;;;1.00;99.90;;;;;;5070873;28;20299;-69
2023/02/10 04:37:18;;;;;;;25.90;15.90;;;1.00;99.90;;;;;;5071007;28;20614;-69
2023/02/10 04:39:44;;;;;;;24.93;16.17;;;1.00;99.90;;;;;;5088095;28;20214;-69
2023/02/10 04:42:11;;;;;;;25.90;15.07;;;1.00;99.90;;;;;;5091319;28;20205;-69
2023/02/10 04:44:38;;;;;;;25.53;15.83;;;1.10;99.90;;;;;;5091105;28;20293;-70
2023/02/10 04:47:07;;;;;;;27.07;16.33;;;1.10;99.90;;;;;;5090676;28;20298;-69
2023/02/10 04:49:33;;;;;;;27.37;15.33;;;1.10;99.90;;;;;;5085198;28;20349;-69
2023/02/10 04:52:00;;;;;;;26.60;16.67;;;1.10;99.90;;;;;;5070807;28;20488;-70
2023/02/10 04:54:27;;;;;;;27.10;16.20;;;1.10;99.90;;;;;;5070368;28;20210;-69
2023/02/10 04:56:54;;;;;;;27.97;15.87;;;1.10;99.90;;;;;;5071515;28;20286;-69
2023/02/10 04:59:21;;;;;;;30.43;16.63;;;1.10;99.90;;;;;;5090930;28;20246;-69
2023/02/10 05:01:48;;;;;;;26.73;16.60;;;1.20;99.90;;;;;;5090485;28;20590;-69
2023/02/10 05:04:16;;;;;;;29.77;16.13;;;1.10;99.90;;;;;;5090185;28;20209;-69
2023/02/10 05:06:43;;;;;;;24.07;16.23;;;1.20;99.90;;;;;;5101066;28;20299;-69
2023/02/10 05:09:10;;;;;;;27.00;16.93;;;1.10;99.90;;;;;;5090124;28;20229;-69
2023/02/10 05:11:36;;;;;;;30.50;17.00;;;1.10;99.90;;;;;;5090339;28;20289;-69
2023/02/10 05:14:03;;;;;;;28.37;16.50;;;1.10;99.90;;;;;;5090488;28;20581;-69
2023/02/10 05:16:30;;;;;;;27.67;17.17;;;1.10;99.90;;;;;;5090399;28;20325;-69
2023/02/10 05:18:57;;;;;;;30.60;17.33;;;1.10;99.90;;;;;;5089904;28;20293;-69
2023/02/10 05:21:25;;;;;;;26.73;16.70;;;1.10;99.90;;;;;;5090073;28;20235;-69
2023/02/10 05:23:52;;;;;;;30.07;17.27;;;1.10;99.90;;;;;;5092987;28;20727;-69
2023/02/10 05:26:19;;;;;;;26.23;16.43;;;1.10;99.90;;;;;;5090372;28;20616;-70
2023/02/10 05:28:46;;;;;;;30.77;17.13;;;1.10;99.90;;;;;;5089977;28;20289;-70
2023/02/10 05:31:13;;;;;;;28.63;17.87;;;1.10;99.90;;;;;;5078761;28;20295;-69
2023/02/10 05:33:40;;;;;;;27.20;16.87;;;1.10;99.90;;;;;;5069925;28;20302;-69
2023/02/10 05:36:07;;;;;;;28.60;17.00;;;1.10;99.90;;;;;;5069781;28;20290;-69
2023/02/10 05:38:36;;;;;;;27.53;17.07;;;1.00;99.90;;;;;;5076864;28;20301;-69
2023/02/10 05:41:03;;;;;;;30.43;17.40;;;1.00;99.90;;;;;;5090268;28;20207;-69
2023/02/10 05:43:30;;;;;;;26.00;16.77;;;1.00;99.90;;;;;;5090095;28;20338;-70
2023/02/10 05:45:57;;;;;;;27.27;17.63;;;1.00;99.90;;;;;;5079572;28;20203;-69
2023/02/10 05:48:24;;;;;;;29.47;16.60;;;1.00;99.90;;;;;;5069125;28;20326;-70
2023/02/10 05:50:52;;;;;;;28.50;17.53;;;0.90;99.90;;;;;;5069540;28;20211;-70
2023/02/10 05:53:19;;;;;;;27.90;16.67;;;0.90;99.90;;;;;;5074399;28;20294;-69
2023/02/10 05:55:48;;;;;;;29.27;17.67;;;0.90;99.90;;;;;;5109978;28;20281;-69
2023/02/10 05:58:14;;;;;;;27.73;17.47;;;0.90;99.90;;;;;;5110106;28;20292;-69
2023/02/10 06:00:41;;;;;;;30.47;18.27;;;0.90;99.90;;;;;;5109521;28;20680;-69
2023/02/10 06:03:08;;;;;;;28.47;16.70;;;0.90;99.90;;;;;;5110212;28;20224;-70
2023/02/10 06:05:35;;;;;;;27.90;17.13;;;0.90;99.90;;;;;;5103559;28;20665;-69
2023/02/10 06:08:02;;;;;;;32.43;18.03;;;0.90;99.90;;;;;;5089164;28;20775;-69
2023/02/10 06:10:29;;;;;;;28.87;17.23;;;0.90;99.90;;;;;;5089481;28;20286;-69
2023/02/10 06:12:57;;;;;;;31.30;17.90;;;0.80;99.90;;;;;;5089462;28;20293;-69
2023/02/10 06:15:24;;;;;;;26.73;17.07;;;0.80;99.90;;;;;;5089093;28;20351;-69
2023/02/10 06:17:51;;;;;;;24.80;16.63;;;0.80;99.90;;;;;;5088900;28;20717;-69
2023/02/10 06:20:18;;;;;;;29.57;17.40;;;0.80;99.90;;;;;;5096080;28;20743;-69
2023/02/10 06:22:44;;;;;;;33.40;18.13;;;0.90;99.90;;;;;;5108949;28;20388;-69
2023/02/10 06:25:11;;;;;;;32.83;18.23;;;0.90;99.90;;;;;;5109550;28;20281;-69
2023/02/10 06:27:38;;;;;;;32.47;17.67;;;0.90;99.90;;;;;;5109079;28;20226;-69
2023/02/10 06:30:08;;;;;;;30.30;17.07;;;0.80;99.90;;;;;;5107363;28;20233;-69
2023/02/10 06:32:35;;;;;;;28.03;17.60;;;0.90;99.90;;;;;;5088615;28;20693;-69
2023/02/10 06:35:02;;;;;;;31.80;17.63;;;1.00;99.90;;;;;;5090463;28;20755;-69
2023/02/10 06:37:29;;;;;;;31.40;18.07;;;0.90;99.90;;;;;;5109280;28;20233;-69
2023/02/10 06:39:56;;;;;;;29.83;18.00;;;0.90;99.90;;;;;;5089604;28;20214;-69
2023/02/10 06:42:22;;;;;;;30.70;18.17;;;0.80;99.90;;;;;;5080500;28;20609;-69
2023/02/10 06:44:49;;;;;;;28.07;17.37;;;0.80;99.90;;;;;;5068658;28;20290;-69
2023/02/10 06:47:18;;;;;;;30.67;17.67;;;0.80;99.90;;;;;;5068340;28;20299;-69
2023/02/10 06:49:44;;;;;;;30.37;17.73;;;0.80;99.90;;;;;;5072160;28;20233;-70
2023/02/10 06:52:11;;;;;;;35.27;18.97;;;0.80;99.90;;;;;;5088676;28;20238;-69
2023/02/10 06:54:38;;;;;;;30.77;16.90;;;0.80;99.90;;;;;;5088218;28;20653;-69
2023/02/10 06:57:05;;;;;;;27.07;16.77;;;0.80;99.90;;;;;;5088386;28;20699;-69
2023/02/10 06:59:33;;;;;;;30.00;16.83;;;0.80;99.90;;;;;;5088341;28;20213;-69
2023/02/10 07:02:01;;;;;;;29.57;17.80;;;0.80;99.90;;;;;;5088339;28;20282;-69
2023/02/10 07:04:30;;;;;;;29.67;16.73;;;0.90;99.90;;;;;;5088364;28;20205;-69
2023/02/10 07:06:57;;;;;;;30.00;17.73;;;0.90;99.90;;;;;;5105910;28;20255;-69
2023/02/10 07:09:24;;;;;;;28.63;17.70;;;0.90;99.90;;;;;;5108385;28;20329;-69
2023/02/10 07:11:51;;;;;;;29.73;16.97;;;0.90;99.90;;;;;;5108614;28;20568;-69
2023/02/10 07:14:18;;;;;;;29.70;17.90;;;0.90;99.90;;;;;;5108538;28;20300;-69
2023/02/10 07:16:45;;;;;;;30.13;18.00;;;1.00;99.90;;;;;;5083914;28;20312;-69
2023/02/10 07:19:12;;;;;;;28.23;17.20;;;1.00;99.90;;;;;;5067827;28;20246;-69
2023/02/10 07:21:40;;;;;;;28.60;17.20;;;1.00;99.90;;;;;;5067607;28;20326;-69
2023/02/10 07:24:08;;;;;;;30.23;17.43;;;1.00;99.90;;;;;;5067875;28;20253;-69
2023/02/10 07:26:35;;;;;;;28.20;16.97;;;1.00;99.90;;;;;;5067935;28;20310;-69
2023/02/10 07:29:02;;;;;;;31.17;17.83;;;1.10;99.90;;;;;;5067691;28;20987;-69
2023/02/10 07:31:29;;;;;;;29.20;17.93;;;1.10;99.90;;;;;;5067431;28;20208;-69
2023/02/10 07:33:55;;;;;;;30.53;17.27;;;1.20;99.90;;;;;;5067765;28;20294;-69
2023/02/10 07:36:22;;;;;;;32.00;17.53;;;1.20;99.90;;;;;;5067863;28;20200;-69
2023/02/10 07:38:51;;;;;;;30.90;17.83;;;1.20;99.90;;;;;;5066160;28;20306;-69
2023/02/10 07:41:17;;;;;;;29.83;17.33;;;1.30;99.90;;;;;;5067382;28;20302;-69
2023/02/10 07:43:44;;;;;;;29.97;17.27;;;1.30;99.90;;;;;;5067360;28;20303;-69
2023/02/10 07:46:12;;;;;;;27.40;16.93;;;1.30;99.90;;;;;;5073303;28;20285;-69
2023/02/10 07:48:39;;;;;;;25.87;16.30;;;1.30;99.90;;;;;;5087838;28;20217;-69
2023/02/10 07:51:06;;;;;;;29.27;17.63;;;1.40;99.90;;;;;;5087961;28;20228;-69
2023/02/10 07:53:33;;;;;;;25.00;16.13;;;1.40;99.90;;;;;;5087628;28;20584;-69
2023/02/10 07:56:01;;;;;;;27.40;16.40;;;1.40;99.90;;;;;;5087692;28;20297;-69
2023/02/10 07:58:29;;;;;;;29.37;16.63;;;1.50;99.90;;;;;;5088209;28;20233;-69
2023/02/10 08:00:56;;;;;;;28.50;17.43;;;1.50;99.90;;;;;;5087170;28;20229;-69
2023/02/10 08:03:23;;;;;;;25.33;16.37;;;1.60;99.90;;;;;;5087776;28;20275;-69
2023/02/10 08:05:50;;;;;;;30.90;17.27;;;1.60;99.90;;;;;;5095661;28;20296;-69
2023/02/10 08:08:17;;;;;;;28.60;15.00;;;1.60;99.90;;;;;;5089534;28;20290;-69
2023/02/10 08:10:44;;;;;;;22.33;15.40;;;1.70;99.90;;;;;;5087343;28;20240;-69
2023/02/10 08:13:12;;;;;;;29.63;15.93;;;1.80;99.90;;;;;;5086605;28;20669;-69
2023/02/10 08:15:39;;;;;;;27.67;15.93;;;1.80;99.90;;;;;;5087443;28;20245;-69
2023/02/10 08:18:06;;;;;;;26.47;15.47;;;1.90;99.90;;;;;;5087357;28;20641;-69
2023/02/10 08:20:33;;;;;;;29.83;16.43;;;2.00;99.90;;;;;;5087468;28;20204;-69
2023/02/10 08:23:00;;;;;;;37.60;22.40;;;2.10;99.90;;;;;;5087235;28;20237;-69
2023/02/10 08:25:27;;;;;;;29.13;17.43;;;2.10;99.90;;;;;;5087210;28;20234;-69
2023/02/10 08:27:54;;;;;;;28.17;16.60;;;2.20;99.90;;;;;;5087448;28;20648;-69
2023/02/10 08:30:23;;;;;;;24.53;15.97;;;2.20;99.90;;;;;;5083158;28;20223;-69
2023/02/10 08:32:50;;;;;;;24.80;15.07;;;2.20;99.90;;;;;;5066971;28;20203;-69
2023/02/10 08:35:17;;;;;;;33.70;17.07;;;2.30;99.90;;;;;;5066949;28;20210;-69
2023/02/10 08:37:44;;;;;;;28.53;17.60;;;2.30;99.90;;;;;;5066668;28;20208;-69
2023/02/10 08:40:11;;;;;;;29.60;16.60;;;2.30;99.90;;;;;;5066848;28;20926;-69
2023/02/10 08:42:38;;;;;;;26.37;17.20;;;2.30;99.90;;;;;;5073921;28;20206;-69
2023/02/10 08:45:06;;;;;;;27.40;17.00;;;2.40;99.90;;;;;;5087260;28;20285;-69
2023/02/10 08:47:34;;;;;;;33.87;17.33;;;2.40;99.90;;;;;;5086912;28;20717;-69
2023/02/10 08:50:01;;;;;;;29.20;18.80;;;2.50;99.90;;;;;;5088120;28;20230;-69
2023/02/10 08:52:28;;;;;;;35.00;20.07;;;2.60;99.90;;;;;;5090535;28;20671;-69
2023/02/10 08:54:56;;;;;;;32.27;19.93;;;2.60;99.90;;;;;;5090718;28;20749;-69
2023/02/10 08:57:23;;;;;;;32.20;19.37;;;2.60;99.90;;;;;;5090647;28;20234;-69
2023/02/10 08:59:50;;;;;;;26.77;18.20;;;2.70;99.90;;;;;;5090643;28;20240;-69
2023/02/10 09:02:17;;;;;;;33.90;20.13;;;2.80;99.90;;;;;;5090561;28;20254;-70
2023/02/10 09:04:45;;;;;;;32.87;19.03;;;2.80;99.90;;;;;;5090518;28;20328;-70
2023/02/10 09:07:13;;;;;;;30.87;19.50;;;2.90;99.90;;;;;;5101005;28;20661;-69
2023/02/10 09:09:42;;;;;;;31.70;19.43;;;2.90;99.90;;;;;;5090084;28;20299;-69
2023/02/10 09:12:11;;;;;;;30.97;18.90;;;2.90;99.90;;;;;;5090397;28;20234;-69
2023/02/10 09:14:39;;;;;;;32.00;19.67;;;3.00;99.90;;;;;;5089998;28;20294;-69
2023/02/10 09:17:07;;;;;;;28.73;18.47;;;3.00;99.90;;;;;;5090362;28;20211;-69
2023/02/10 09:19:34;;;;;;;28.73;18.77;;;3.00;99.90;;;;;;5090013;28;20209;-69
2023/02/10 09:22:03;;;;;;;33.00;20.07;;;3.00;99.90;;;;;;5089996;28;20240;-69
2023/02/10 09:24:30;;;;;;;34.27;20.17;;;3.00;99.90;;;;;;5089784;28;20301;-69
2023/02/10 09:26:57;;;;;;;29.83;18.70;;;3.10;99.90;;;;;;5089975;28;20281;-69
2023/02/10 09:29:23;;;;;;;31.43;20.33;;;3.10;99.90;;;;;;5089907;28;20318;-69
2023/02/10 09:31:50;;;;;;;33.87;19.17;;;3.10;99.90;;;;;;5073230;28;20243;-69
2023/02/10 09:34:18;;;;;;;33.30;18.73;;;3.10;99.90;;;;;;5070079;28;20249;-69
2023/02/10 09:36:44;;;;;;;30.33;18.33;;;3.20;99.90;;;;;;5101321;28;20242;-69
2023/02/10 09:39:13;;;;;;;29.63;18.90;;;3.20;99.90;;;;;;5097075;28;20290;-69
2023/02/10 09:41:52;;;;;;;33.27;19.23;;;3.20;99.90;;;;;;5089877;28;20234;-69
2023/02/10 09:44:22;;;;;;;35.17;18.63;;;3.20;99.90;;;;;;5090060;28;20598;-69
2023/02/10 09:47:05;;;;;;;32.43;18.97;;;3.20;99.90;;;;;;5089811;28;20214;-69
2023/02/10 09:49:53;;;;;;;27.97;18.27;;;3.30;99.90;;;;;;5089615;28;20809;-69
2023/02/10 09:52:30;;;;;;;34.80;20.10;;;3.30;99.90;;;;;;5089806;28;20199;-69
2023/02/10 09:55:00;;;;;;;32.90;19.13;;;3.30;99.90;;;;;;5089677;28;20277;-69
2023/02/10 09:57:35;;;;;;;31.77;18.20;;;3.40;99.90;;;;;;5090098;28;20636;-69
2023/02/10 10:00:04;;;;;;;31.67;18.70;;;3.40;99.90;;;;;;5089612;28;20286;-69
2023/02/10 10:02:36;;;;;;;33.17;18.90;;;3.40;99.90;;;;;;5088637;28;20313;-69
2023/02/10 10:05:15;;;;;;;32.43;18.40;;;3.40;99.90;;;;;;5086143;28;20203;-69
2023/02/10 10:07:51;;;;;;;27.87;17.47;;;3.50;99.90;;;;;;5096462;28;20191;-69
2023/02/10 10:10:25;;;;;;;32.27;18.97;;;3.50;99.90;;;;;;5089420;28;20252;-69
2023/02/10 10:12:52;;;;;;;35.27;18.07;;;3.50;99.90;;;;;;5089246;28;20194;-69
2023/02/10 10:15:20;;;;;;;28.40;16.83;;;3.50;99.90;;;;;;5088748;28;20643;-69
2023/02/10 10:18:02;;;;;;;30.00;17.57;;;3.50;99.90;;;;;;5089070;28;20222;-69
2023/02/10 10:20:49;;;;;;;30.13;17.50;;;3.50;99.90;;;;;;5088756;28;20705;-69
2023/02/10 10:23:35;;;;;;;28.70;17.37;;;3.60;99.90;;;;;;5088869;28;20664;-69
2023/02/10 10:26:12;;;;;;;30.43;16.40;;;3.60;99.90;;;;;;5088902;28;20232;-69
2023/02/10 10:28:58;;;;;;;28.53;16.20;;;3.60;99.90;;;;;;5088794;28;20250;-69
2023/02/10 10:31:29;;;;;;;27.33;16.50;;;3.60;99.90;;;;;;5075943;28;20716;-69
2023/02/10 10:34:00;;;;;;;28.53;16.60;;;3.60;99.90;;;;;;5068226;28;20730;-69
2023/02/10 10:36:32;;;;;;;28.40;16.73;;;3.70;99.90;;;;;;5099704;28;20289;-69
2023/02/10 10:39:03;;;;;;;28.23;16.43;;;3.70;99.90;;;;;;5097515;28;20743;-69
2023/02/10 10:41:34;;;;;;;29.17;16.73;;;3.70;99.90;;;;;;5088698;28;20234;-69
2023/02/10 10:44:02;;;;;;;24.60;15.90;;;3.70;99.90;;;;;;5088900;28;20206;-69
2023/02/10 10:46:35;;;;;;;31.33;16.63;;;3.80;99.90;;;;;;5088657;28;20199;-69
2023/02/10 10:49:03;;;;;;;28.80;16.47;;;3.80;99.90;;;;;;5089092;28;20241;-69
2023/02/10 10:51:30;;;;;;;29.37;16.43;;;3.80;99.90;;;;;;5088676;28;20231;-69
2023/02/10 10:53:58;;;;;;;30.40;17.07;;;3.80;99.90;;;;;;5088121;28;20636;-69
2023/02/10 10:56:37;;;;;;;26.33;15.90;;;3.80;99.90;;;;;;5088560;28;20671;-69
2023/02/10 10:59:12;;;;;;;28.60;16.60;;;3.90;99.90;;;;;;5088842;28;20245;-69
2023/02/10 11:01:41;;;;;;;31.87;16.77;;;3.90;99.90;;;;;;5087273;28;20270;-69
2023/02/10 11:04:13;;;;;;;25.30;16.17;;;4.00;99.90;;;;;;5088308;28;20846;-69
2023/02/10 11:06:42;;;;;;;27.40;16.43;;;4.10;99.90;;;;;;5098793;28;20285;-69
2023/02/10 11:09:21;;;;;;;27.23;17.27;;;4.20;99.90;;;;;;5087960;28;20298;-69
2023/02/10 11:11:51;;;;;;;33.37;18.53;;;4.30;99.90;;;;;;5088184;28;20218;-68
2023/02/10 11:14:21;;;;;;;34.70;16.90;;;4.30;99.90;;;;;;5088183;28;20252;-69
2023/02/10 11:16:52;;;;;;;29.87;16.10;;;4.50;99.90;;;;;;5087907;28;20865;-68
2023/02/10 11:19:22;;;;;;;27.60;15.80;;;4.60;99.90;;;;;;5088257;28;20281;-69
2023/02/10 11:21:49;;;;;;;32.40;16.10;;;4.70;99.90;;;;;;5087580;28;20329;-69
2023/02/10 11:24:20;;;;;;;27.03;17.43;;;4.80;99.90;;;;;;5087798;28;20345;-69
2023/02/10 11:26:58;;;;;;;27.97;16.80;;;5.00;99.90;;;;;;5088157;28;20275;-69
2023/02/10 11:29:25;;;;;;;29.53;17.63;;;5.10;99.90;;;;;;5088389;28;20256;-69
2023/02/10 11:31:54;;;;;;;29.03;16.60;;;5.30;99.90;;;;;;5082314;28;20230;-69
2023/02/10 11:34:24;;;;;;;25.83;16.23;;;5.40;99.90;;;;;;5088162;28;20238;-69
2023/02/10 11:36:52;;;;;;;29.13;17.43;;;5.40;99.90;;;;;;5104461;28;20309;-69
2023/02/10 11:39:25;;;;;;;29.00;18.00;;;5.50;99.90;;;;;;5094022;28;20211;-69
2023/02/10 11:41:52;;;;;;;27.43;16.97;;;5.50;99.90;;;;;;5087654;28;20294;-69
2023/02/10 11:44:27;;;;;;;25.10;16.00;;;5.50;99.90;;;;;;5088138;28;20240;-69
2023/02/10 11:47:02;;;;;;;29.23;17.50;;;5.60;99.90;;;;;;5087750;28;20199;-70
2023/02/10 11:49:32;;;;;;;30.70;17.13;;;5.60;99.90;;;;;;5088183;28;20277;-70
2023/02/10 11:52:01;;;;;;;24.70;16.60;;;5.60;99.90;;;;;;5087638;28;20227;-70
2023/02/10 11:54:29;;;;;;;24.87;16.77;;;5.70;99.90;;;;;;5087232;28;20254;-70
2023/02/10 12:00:11;;;;;;;28.43;16.80;;;5.80;99.90;;;;;;5087310;28;20197;-70
2023/02/10 12:02:54;;;;;;;28.97;17.07;;;5.70;99.90;;;;;;5088171;28;20199;-70
2023/02/10 12:05:33;;;;;;;28.43;16.77;;;5.60;99.90;;;;;;5087737;28;20277;-70
2023/02/10 12:08:11;;;;;;;24.67;15.50;;;5.50;99.90;;;;;;5087013;28;20625;-70
2023/02/10 12:10:44;;;;;;;29.10;17.03;;;5.50;99.90;;;;;;5087404;28;20785;-70
2023/02/10 12:13:20;;;;;;;26.93;17.50;;;5.50;99.90;;;;;;5087276;28;20277;-70
2023/02/10 12:16:01;;;;;;;27.00;15.93;;;5.50;99.90;;;;;;5087347;28;20286;-70
2023/02/10 12:18:50;;;;;;;26.33;17.03;;;5.50;99.90;;;;;;5087193;28;20642;-70
2023/02/10 12:21:29;;;;;;;28.47;16.23;;;5.50;99.90;;;;;;5087254;28;20325;-69
2023/02/10 12:24:11;;;;;;;25.33;16.03;;;5.70;99.90;;;;;;5086925;28;20205;-69
2023/02/10 12:26:46;;;;;;;29.57;17.20;;;5.80;99.90;;;;;;5091118;28;20295;-69
2023/02/10 12:29:28;;;;;;;23.77;14.90;;;5.90;99.90;;;;;;5071363;28;20274;-69
2023/02/10 12:32:03;;;;;;;24.53;15.13;;;6.00;99.90;;;;;;5071058;28;20223;-69
2023/02/10 12:35:00;;;;;;;26.90;15.47;;;6.10;99.90;;;;;;5071289;28;20205;-69
2023/02/10 12:37:37;;;;;;;27.97;15.40;;;6.10;99.90;;;;;;5071125;28;20629;-70
2023/02/10 12:40:25;;;;;;;27.93;15.60;;;6.10;99.90;;;;;;5070867;28;20302;-69
2023/02/10 12:43:03;;;;;;;25.07;15.43;;;6.00;99.90;;;;;;5071028;28;20610;-70
2023/02/10 12:45:35;;;;;;;33.50;17.27;;;5.90;99.90;;;;;;5070945;28;20277;-70
2023/02/10 12:48:14;;;;;;;24.57;15.30;;;5.80;99.90;;;;;;5071102;28;20277;-70
2023/02/10 12:50:54;;;;;;;27.13;15.50;;;5.80;99.90;;;;;;5070367;28;20330;-70
2023/02/10 12:53:26;;;;;;;21.77;14.07;;;5.80;99.90;;;;;;5074010;28;20995;-70
2023/02/10 12:55:57;;;;;;;24.23;14.20;;;5.80;99.90;;;;;;5070535;28;20309;-70